< Typhoon 195214 1952 Season Typhoon 195216 >
Typhoon 195215 (ROSE)
General InformationTrack Information on Google Maps || Disaster Info.ResourceGoogle EarthGE AnimationAtom FeedGeoJSON
Detalied Best Track (Time Zone = UTC)
Year Month Day Hour Lat. Long. Pressure (hPa) Wind (kt) Class Image Chart
1952 10 4 00 22.0 140.5 1006 0 2 -- Chart
1952 10 4 06 23.0 142.0 1000 0 2 -- Chart
1952 10 4 12 23.0 142.0 998 0 2 -- Chart
1952 10 4 18 23.0 142.0 998 0 2 -- Chart
1952 10 5 00 23.0 142.0 996 0 2 -- Chart
1952 10 5 06 23.0 142.0 996 0 2 -- Chart
1952 10 5 12 23.0 142.0 990 0 2 -- Chart
1952 10 5 18 23.4 141.9 990 0 9 -- Chart
1952 10 6 00 24.1 141.7 986 0 9 -- Chart
1952 10 6 06 24.9 142.1 985 0 9 -- Chart
1952 10 6 12 25.3 142.2 985 0 9 -- Chart
1952 10 6 18 25.4 142.2 985 0 9 -- Chart
1952 10 7 00 25.5 142.2 985 0 9 -- Chart
1952 10 7 06 25.7 142.1 990 0 9 -- Chart
1952 10 7 12 26.0 142.0 990 0 9 -- Chart
1952 10 7 18 26.4 141.8 990 0 9 -- Chart
1952 10 8 00 26.7 141.7 989 0 9 -- Chart
1952 10 8 06 27.4 142.1 990 0 9 -- Chart
1952 10 8 12 28.0 142.1 990 0 9 -- Chart
1952 10 8 18 28.6 142.1 990 0 9 -- Chart
1952 10 9 00 29.2 142.1 997 0 9 -- Chart
1952 10 9 06 30.1 142.1 998 0 9 -- Chart
1952 10 9 12 32.0 143.5 995 0 9 -- Chart
1952 10 9 18 33.6 145.2 995 0 9 -- Chart
1952 10 10 00 34.8 147.0 995 0 9 -- Chart
1952 10 10 06 36.3 149.3 1000 0 2 -- Chart
1952 10 10 12 38.0 152.0 1000 0 6 -- Chart
1952 10 10 18 39.3 154.5 1000 0 6 -- Chart
1952 10 11 00 40.0 156.5 1002 0 6 -- Chart
1952 10 11 06 41.0 158.5 1004 0 6 -- Chart
1952 10 11 12 41.5 160.0 1012 0 6 -- Chart
1952 10 11 18 41.0 162.0 1014 0 6 -- Chart
1952 10 12 00 41.0 164.0 1016 0 6 -- Chart
Japan Meteorological Agency Best Track Data | Correction Date : 1989-06-01
< Typhoon 195214 1952 Season Typhoon 195216 >

Help